Freedom, CA

6:20 PM PST on February 21, 2017 (GMT -0800)
Watsonville Municipal | | Change Station

Elev 157 ft 36.94 °N, 121.79 °W | Updated 27 minutes ago

Overcast
Overcast
55 °F
Feels Like 55 °F
N
10
Wind Variable Wind from SSW

Today
High -- | Low -- °F
--% Chance of Precip.
Yesterday
High -- | Low -- °F
Precip. -- in
Pressure 30.21 in
Visibility 10.0 miles
Clouds Mostly Cloudy 1000 ft
Mostly Cloudy 1800 ft
Overcast 3800 ft
Dew Point 55 °F
Humidity 100%
Rainfall 0.07 in
Snow Depth Not available.
6:47 AM 5:53 PM
Waning Crescent, 21% visible
METAR KWVI 220153Z AUTO 20009KT 10SM BKN010 BKN018 OVC038 13/13 A3021 RMK AO2 SLP229 T01280128 $
Pressure 30.21 in
Visibility 10.0 miles
Clouds Mostly Cloudy 1000 ft
Mostly Cloudy 1800 ft
Overcast 3800 ft
Dew Point 55 °F
Humidity 100%
Rainfall 0.07 in
Snow Depth Not available.
6:47 AM 5:53 PM
Waning Crescent, 21% visible
METAR KWVI 220153Z AUTO 20009KT 10SM BKN010 BKN018 OVC038 13/13 A3021 RMK AO2 SLP229 T01280128 $

Get Your Daily Forecast Email!

Thanks for signing up!

Be on the lookout for a verification email in your inbox.

You'll start receiving the daily forecast at 8 AM.

×

10-Day Weather Forecast

Almanac

Astronomy

Feb. 21, 2017 Rise Set
Actual Time
Civil Twilight
Nautical Twilight
Astronomical Twilight
Moon
Length of Visible Light
Length of Day
Tomorrow will be .
, % of the Moon is Illuminated

Today's Extremes

State Highs State Lows

Community

WunderPhotos

Upload Photos

1,962,540 photos uploaded!

WunderBlog® & News

Nearby

Air Quality

  Air Quality AQ Index Pollutant
Not available.

Snow Depth

Station Depth Elevation

Earthquake Activity

City Distance Mag. Time & Date
Minimum magnitude displayed is 2.5.

Coastal Water Temperatures

Place Temperature

Stations

Nearby Weather Stations

Station Location Temp. Windchill Dew Point Humidity Wind Precip. Elev Updated Type
                   

Watches & Warnings

There are currently no watches in effect.